Time;durP1;ratioP1;P1;durP2;ratioP2;P2;SDS_P1;SDS_P2;PMS_P1;PMS_P2;Temp;Humidity;BMP_temperature;BMP_pressure;BME280_temperature;BME280_humidity;BME280_pressure;Samples;Min_cycle;Max_cycle;Signal;HPM_P1;HPM_P2
2022/05/26 00:00:12;;;;;;;3.72;2.37;;;;;;;17.90;58.95;99835.59;4443613;32;33708;-61
2022/05/26 00:02:40;;;;;;;4.97;2.80;;;;;;;18.16;57.88;99834.75;4449379;32;33970;-61
2022/05/26 00:05:08;;;;;;;5.18;2.75;;;;;;;17.88;59.11;99836.78;4448812;32;33451;-64
2022/05/26 00:07:36;;;;;;;5.68;3.10;;;;;;;17.77;58.77;99839.75;4448460;32;34593;-64
2022/05/26 00:10:04;;;;;;;5.00;2.83;;;;;;;18.04;58.31;99842.31;4448371;32;35038;-61
2022/05/26 00:12:34;;;;;;;4.87;3.03;;;;;;;17.91;57.74;99844.56;4447945;32;32610;-64
2022/05/26 00:15:03;;;;;;;7.22;3.65;;;;;;;16.92;61.11;99850.16;4450061;32;33546;-63
2022/05/26 00:17:31;;;;;;;5.45;3.22;;;;;;;17.08;60.46;99844.91;4443690;32;32333;-61
2022/05/26 00:19:58;;;;;;;5.62;3.40;;;;;;;16.74;61.68;99847.38;4437066;32;33523;-61
2022/05/26 00:22:26;;;;;;;5.15;3.10;;;;;;;17.26;60.50;99844.06;4449849;32;33967;-61
2022/05/26 00:24:54;;;;;;;5.35;3.47;;;;;;;17.10;60.92;99850.16;4446188;32;33645;-63
2022/05/26 00:27:21;;;;;;;6.00;3.62;;;;;;;17.58;59.12;99855.16;4450194;32;33438;-62
2022/05/26 00:29:49;;;;;;;5.18;3.30;;;;;;;17.69;58.70;99857.63;4453515;32;33567;-61
2022/05/26 00:32:17;;;;;;;6.37;3.70;;;;;;;17.46;58.98;99851.84;4452144;32;34884;-63
2022/05/26 00:34:45;;;;;;;6.20;3.22;;;;;;;17.53;59.12;99862.91;4454070;32;33856;-61
2022/05/26 00:37:12;;;;;;;8.73;3.80;;;;;;;17.41;59.05;99862.28;4451536;32;34187;-61
2022/05/26 00:39:40;;;;;;;6.25;3.83;;;;;;;17.82;58.25;99867.22;4446714;32;33685;-61
2022/05/26 00:42:08;;;;;;;5.32;3.42;;;;;;;18.08;57.22;99875.34;4449127;32;33622;-61
2022/05/26 00:44:36;;;;;;;5.57;2.87;;;;;;;18.19;56.92;99872.34;4450368;32;33589;-63
2022/05/26 00:47:11;;;;;;;6.57;3.72;;;;;;;18.46;55.90;99882.16;4448261;32;33407;-63
2022/05/26 00:49:46;;;;;;;5.95;3.90;;;;;;;18.25;56.42;99874.41;4438115;32;33399;-63
2022/05/26 00:52:22;;;;;;;6.70;3.40;;;;;;;18.14;56.54;99870.13;4451680;32;35170;-61
2022/05/26 00:54:51;;;;;;;5.90;3.58;;;;;;;17.65;58.00;99875.16;4438563;32;36041;-61
2022/05/26 00:57:25;;;;;;;5.43;3.50;;;;;;;17.97;56.98;99879.16;4445778;32;32084;-60
2022/05/26 01:00:04;;;;;;;5.43;3.55;;;;;;;18.35;55.54;99882.44;4445449;32;34101;-60
2022/05/26 01:02:37;;;;;;;6.72;3.72;;;;;;;18.37;55.42;99889.38;4450795;32;35223;-61
2022/05/26 01:05:13;;;;;;;5.62;3.40;;;;;;;18.22;55.52;99885.56;4443712;32;33750;-61
2022/05/26 01:07:41;;;;;;;6.03;3.95;;;;;;;17.88;56.71;99893.63;4452733;32;33151;-62
2022/05/26 01:10:10;;;;;;;6.37;3.65;;;;;;;17.85;56.83;99889.41;4447958;32;33893;-63
2022/05/26 01:12:38;;;;;;;7.25;3.62;;;;;;;17.95;56.19;99899.28;4446664;32;33604;-64
2022/05/26 01:15:13;;;;;;;5.53;3.62;;;;;;;18.12;55.87;99898.38;4445639;32;33527;-64
2022/05/26 01:17:46;;;;;;;7.10;3.73;;;;;;;18.09;55.98;99894.13;4447515;32;33179;-62
2022/05/26 01:20:38;;;;;;;5.87;3.80;;;;;;;18.31;55.15;99897.31;4445490;32;32020;-64
2022/05/26 01:23:28;;;;;;;7.95;4.07;;;;;;;18.33;54.91;99892.56;4445597;32;34048;-63
2022/05/26 01:26:17;;;;;;;6.25;3.53;;;;;;;18.20;55.09;99895.72;4449517;32;33608;-63
2022/05/26 01:28:47;;;;;;;9.35;3.90;;;;;;;18.26;55.07;99897.78;4436914;32;33969;-63
2022/05/26 01:31:53;;;;;;;5.40;3.45;;;;;;;18.41;54.66;99894.47;4444309;32;32913;-63
2022/05/26 01:34:46;;;;;;;6.97;3.62;;;;;;;18.68;53.87;99886.13;4442497;32;36139;-61
2022/05/26 01:37:39;;;;;;;5.60;3.60;;;;;;;18.59;53.83;99889.84;4446452;32;33528;-61
2022/05/26 01:40:32;;;;;;;5.40;3.15;;;;;;;18.50;53.87;99890.81;4442563;32;33380;-63
2022/05/26 01:43:19;;;;;;;6.25;3.58;;;;;;;18.20;54.85;99903.00;4443877;32;34914;-65
2022/05/26 01:45:51;;;;;;;5.53;3.62;;;;;;;18.05;55.13;99900.88;4446600;32;32592;-61
2022/05/26 01:48:55;;;;;;;5.70;3.70;;;;;;;17.72;56.39;99904.31;4440807;32;34239;-65
2022/05/26 01:51:27;;;;;;;6.43;3.62;;;;;;;18.38;54.33;99909.19;4439100;32;32990;-62
2022/05/26 01:54:18;;;;;;;6.10;3.70;;;;;;;18.55;54.10;99916.41;4453450;32;34590;-65
2022/05/26 01:56:55;;;;;;;7.55;4.15;;;;;;;18.48;53.92;99914.50;4443985;32;33585;-62
2022/05/26 01:59:27;;;;;;;5.40;3.67;;;;;;;18.50;53.79;99907.06;4446506;32;33919;-61
2022/05/26 02:02:00;;;;;;;6.20;4.07;;;;;;;17.46;56.78;99918.63;4441523;32;34233;-64
2022/05/26 02:04:34;;;;;;;6.22;3.90;;;;;;;18.36;54.04;99917.50;4443563;32;32668;-64
2022/05/26 02:07:17;;;;;;;6.50;3.95;;;;;;;18.10;55.54;99930.19;4439002;32;34274;-62
2022/05/26 02:09:45;;;;;;;6.03;4.25;;;;;;;17.82;55.60;99922.22;4444162;32;32621;-62
2022/05/26 02:12:22;;;;;;;6.35;4.60;;;;;;;17.79;56.85;99925.22;4446709;32;33952;-62
2022/05/26 02:14:57;;;;;;;6.35;4.15;;;;;;;17.92;55.66;99928.38;4444003;32;33755;-63
2022/05/26 02:17:35;;;;;;;6.82;4.40;;;;;;;16.74;59.17;99931.16;4444935;32;33769;-62
2022/05/26 02:20:12;;;;;;;6.22;4.30;;;;;;;17.10;58.41;99932.13;4446848;32;32789;-61
2022/05/26 02:22:49;;;;;;;7.43;4.55;;;;;;;17.02;58.73;99934.75;4438388;32;34386;-63
2022/05/26 02:25:19;;;;;;;12.35;4.70;;;;;;;16.99;59.39;99938.59;4448123;32;35247;-62
2022/05/26 02:27:53;;;;;;;8.27;4.60;;;;;;;17.68;56.73;99947.09;4449435;32;34202;-62
2022/05/26 02:30:24;;;;;;;7.28;5.10;;;;;;;16.49;60.57;99943.50;4437515;32;32857;-62
2022/05/26 02:32:53;;;;;;;6.93;4.80;;;;;;;16.69;59.85;99947.84;4447993;32;33105;-63
2022/05/26 02:35:27;;;;;;;7.53;5.50;;;;;;;16.76;60.06;99954.38;4446915;32;33347;-65
2022/05/26 02:37:59;;;;;;;8.15;4.70;;;;;;;16.82;59.54;99950.25;4438136;32;35202;-63
2022/05/26 02:40:28;;;;;;;8.02;5.43;;;;;;;17.08;58.75;99944.09;4438963;32;32619;-63
2022/05/26 02:42:59;;;;;;;8.52;5.53;;;;;;;16.51;60.46;99952.31;4448372;32;33308;-63
2022/05/26 02:45:43;;;;;;;6.53;5.22;;;;;;;16.31;61.27;99951.53;4440837;32;32324;-62
2022/05/26 02:48:19;;;;;;;8.50;5.75;;;;;;;15.92;62.78;99958.84;4443543;32;34935;-67
2022/05/26 02:51:05;;;;;;;8.32;5.12;;;;;;;17.10;59.16;99958.31;4443598;32;34628;-62
2022/05/26 02:54:04;;;;;;;7.75;6.03;;;;;;;17.72;56.97;99961.16;4433971;32;31920;-64
2022/05/26 02:56:42;;;;;;;9.55;5.70;;;;;;;17.49;57.42;99963.47;4446272;32;34277;-62
2022/05/26 02:59:41;;;;;;;7.97;5.80;;;;;;;17.35;58.39;99962.16;4446877;32;33821;-63
2022/05/26 03:02:15;;;;;;;8.15;5.45;;;;;;;17.96;56.15;99960.56;4446017;32;33665;-62
2022/05/26 03:04:46;;;;;;;8.23;5.78;;;;;;;17.97;56.40;99956.84;4446682;32;34296;-62
2022/05/26 03:07:24;;;;;;;8.35;6.45;;;;;;;18.08;55.39;99968.28;4440803;32;33783;-62
2022/05/26 03:09:52;;;;;;;9.50;5.65;;;;;;;17.94;55.48;99971.53;4445807;32;32763;-61
2022/05/26 03:12:35;;;;;;;9.95;6.32;;;;;;;17.54;56.50;99966.59;4447654;32;33519;-62
2022/05/26 03:15:05;;;;;;;8.50;5.28;;;;;;;17.49;56.80;99960.78;4445890;32;33078;-61
2022/05/26 03:17:33;;;;;;;9.15;5.32;;;;;;;17.45;56.76;99965.63;4447100;32;32623;-62
2022/05/26 03:20:01;;;;;;;8.45;5.45;;;;;;;17.81;55.46;99966.50;4449455;32;35418;-61
2022/05/26 03:22:29;;;;;;;7.03;4.82;;;;;;;17.78;55.40;99965.97;4445582;32;33471;-64
2022/05/26 03:24:57;;;;;;;6.82;4.93;;;;;;;17.86;55.27;99977.75;4438929;32;34443;-62
2022/05/26 03:27:25;;;;;;;7.78;4.78;;;;;;;17.69;55.69;99976.72;4442620;32;32947;-61
2022/05/26 03:29:54;;;;;;;7.65;5.57;;;;;;;17.90;55.58;99981.81;4448471;32;35364;-63
2022/05/26 03:32:23;;;;;;;7.22;5.40;;;;;;;17.64;55.90;99989.84;4447700;32;34317;-62
2022/05/26 03:43:10;;;;;;;7.55;5.22;;;;;;;17.47;56.85;99996.13;4448866;32;33890;-62
2022/05/26 03:45:38;;;;;;;7.85;5.57;;;;;;;17.53;56.57;100000.91;4446912;32;33062;-61
2022/05/26 03:48:06;;;;;;;8.73;5.87;;;;;;;17.14;58.66;100003.88;4436878;32;33554;-63
2022/05/26 03:50:34;;;;;;;9.77;6.47;;;;;;;18.04;55.88;100001.22;4449104;32;33229;-61
2022/05/26 03:53:02;;;;;;;7.35;5.87;;;;;;;17.89;56.54;99999.09;4438592;32;33659;-63
2022/05/26 03:55:29;;;;;;;7.35;5.28;;;;;;;17.85;56.70;100005.00;4449493;32;33431;-63
2022/05/26 03:57:59;;;;;;;6.95;5.45;;;;;;;17.82;57.11;99998.03;4445012;32;33777;-62
2022/05/26 04:00:26;;;;;;;7.47;5.37;;;;;;;18.34;55.47;100008.09;4446176;32;35292;-62
2022/05/26 04:02:54;;;;;;;8.82;6.12;;;;;;;18.03;56.32;99997.69;4441943;32;34339;-62
2022/05/26 04:05:22;;;;;;;8.55;6.57;;;;;;;17.80;56.66;100004.59;4442855;32;34060;-61
2022/05/26 04:07:50;;;;;;;8.57;5.87;;;;;;;18.10;56.63;100012.28;4450291;32;35208;-61
2022/05/26 04:10:19;;;;;;;8.82;6.30;;;;;;;18.13;56.06;100016.53;4446338;32;32946;-62
2022/05/26 04:12:47;;;;;;;7.80;5.78;;;;;;;17.89;56.66;100020.75;4446509;32;33595;-64
2022/05/26 04:15:16;;;;;;;7.93;5.93;;;;;;;17.99;56.42;100027.94;4448692;32;31958;-61
2022/05/26 04:17:44;;;;;;;8.85;6.70;;;;;;;18.16;56.27;100025.22;4444455;32;32587;-62
2022/05/26 04:20:16;;;;;;;8.55;6.80;;;;;;;17.92;56.66;100030.44;4448668;32;35161;-64
2022/05/26 04:22:44;;;;;;;9.90;7.20;;;;;;;17.79;57.09;100021.84;4436420;32;32335;-62
2022/05/26 04:25:12;;;;;;;7.82;5.57;;;;;;;17.82;57.59;100033.22;4448231;32;33190;-62
2022/05/26 04:27:40;;;;;;;8.00;6.10;;;;;;;17.74;58.12;100032.25;4445534;32;32514;-61
2022/05/26 04:30:10;;;;;;;8.50;5.35;;;;;;;18.31;56.22;100032.78;4446133;32;34148;-63
2022/05/26 04:32:39;;;;;;;8.05;6.05;;;;;;;18.27;55.79;100028.69;4445583;32;34855;-64
2022/05/26 04:35:10;;;;;;;8.68;5.93;;;;;;;17.84;57.21;100039.31;4448822;32;32089;-65
2022/05/26 04:37:39;;;;;;;8.43;5.53;;;;;;;17.87;57.06;100049.81;4443473;32;34599;-63
2022/05/26 04:40:08;;;;;;;7.32;5.05;;;;;;;17.89;57.42;100042.41;4442806;32;35881;-63
2022/05/26 04:42:37;;;;;;;8.27;5.60;;;;;;;18.32;55.92;100054.28;4439226;32;33922;-61
2022/05/26 04:45:06;;;;;;;6.70;4.82;;;;;;;18.35;54.92;100035.00;4443822;32;33216;-61
2022/05/26 04:47:34;;;;;;;7.45;5.50;;;;;;;18.16;56.45;100046.87;4447765;32;32767;-63
2022/05/26 04:50:02;;;;;;;7.45;4.75;;;;;;;18.38;56.15;100044.69;4447335;32;35100;-64
2022/05/26 04:52:30;;;;;;;6.62;4.90;;;;;;;18.54;55.92;100036.69;4444129;32;33819;-62
2022/05/26 04:54:58;;;;;;;7.60;5.15;;;;;;;17.99;56.49;100047.75;4447299;32;33112;-62
2022/05/26 04:57:25;;;;;;;10.40;4.65;;;;;;;18.65;55.14;100054.56;4438852;32;35087;-62
2022/05/26 04:59:54;;;;;;;6.90;5.15;;;;;;;18.27;56.59;100056.66;4450122;32;35207;-62
2022/05/26 05:02:23;;;;;;;7.12;5.15;;;;;;;18.42;55.84;100056.06;4448696;32;34614;-64
2022/05/26 05:04:51;;;;;;;7.97;5.32;;;;;;;18.37;55.50;100065.53;4447107;32;33468;-66
2022/05/26 05:07:19;;;;;;;7.10;4.18;;;;;;;18.40;55.53;100058.94;4445930;32;33716;-63
2022/05/26 05:09:47;;;;;;;6.78;4.57;;;;;;;18.65;54.77;100069.94;4445037;32;35249;-63
2022/05/26 05:12:19;;;;;;;5.72;4.05;;;;;;;18.48;55.35;100069.84;4443810;32;34889;-62
2022/05/26 05:14:49;;;;;;;6.28;3.45;;;;;;;18.51;54.47;100064.09;4450484;32;34661;-65
2022/05/26 05:17:17;;;;;;;6.15;3.50;;;;;;;19.09;52.54;100073.47;4446003;32;33467;-63
2022/05/26 05:19:46;;;;;;;7.35;3.67;;;;;;;19.24;52.09;100085.44;4434944;32;33459;-62
2022/05/26 05:22:20;;;;;;;5.03;3.50;;;;;;;18.48;54.31;100083.38;4437840;32;33575;-62
2022/05/26 05:24:53;;;;;;;7.90;3.75;;;;;;;18.42;54.13;100083.16;4436646;32;35407;-62
2022/05/26 05:27:33;;;;;;;4.87;3.40;;;;;;;18.85;53.78;100096.75;4439798;32;33691;-66
2022/05/26 05:30:07;;;;;;;6.60;3.87;;;;;;;19.24;53.31;100087.28;4438629;32;33911;-69
2022/05/26 05:32:44;;;;;;;7.27;4.37;;;;;;;19.26;52.55;100090.69;4441152;32;32434;-64
2022/05/26 05:35:23;;;;;;;7.28;4.15;;;;;;;19.53;52.37;100095.91;4434458;32;33398;-65
2022/05/26 05:37:51;;;;;;;6.40;4.25;;;;;;;19.20;53.28;100091.34;4440842;32;32349;-66
2022/05/26 05:40:18;;;;;;;6.03;3.30;;;;;;;18.98;53.65;100109.03;4446882;32;34049;-65
2022/05/26 05:42:46;;;;;;;5.20;3.25;;;;;;;19.00;53.02;100105.13;4441578;32;34817;-65
2022/05/26 05:45:14;;;;;;;5.80;3.17;;;;;;;19.53;51.85;100103.19;4439363;32;34273;-65
2022/05/26 05:47:42;;;;;;;5.40;3.10;;;;;;;19.31;52.25;100108.19;4441202;32;35376;-63
2022/05/26 05:50:10;;;;;;;5.53;3.17;;;;;;;19.25;50.63;100100.69;4434106;32;32909;-64
2022/05/26 05:52:38;;;;;;;7.40;3.30;;;;;;;19.48;50.94;100108.25;4454516;32;31923;-64
2022/05/26 05:55:05;;;;;;;11.40;3.10;;;;;;;18.93;52.42;100108.66;4447939;32;34173;-65
2022/05/26 05:57:36;;;;;;;6.80;2.87;;;;;;;19.10;51.87;100113.19;4447116;32;33602;-66
2022/05/26 06:00:06;;;;;;;5.65;2.70;;;;;;;19.27;52.01;100112.25;4447697;32;32825;-64
2022/05/26 06:02:34;;;;;;;4.65;2.58;;;;;;;19.22;52.19;100113.72;4445843;32;33295;-65
2022/05/26 06:05:04;;;;;;;3.75;2.20;;;;;;;19.78;50.47;100107.72;4448587;32;34953;-65
2022/05/26 06:07:31;;;;;;;5.55;2.50;;;;;;;20.33;49.96;100109.00;4450363;32;34552;-64
2022/05/26 06:10:00;;;;;;;3.53;2.00;;;;;;;19.81;51.11;100122.84;4443708;32;32390;-65
2022/05/26 06:12:27;;;;;;;6.60;2.40;;;;;;;20.17;50.00;100109.84;4448059;32;34422;-66
2022/05/26 06:14:55;;;;;;;4.53;1.98;;;;;;;19.92;51.01;100121.69;4442610;32;33388;-65
2022/05/26 06:17:23;;;;;;;4.70;2.30;;;;;;;20.57;49.61;100120.94;4451693;32;32883;-65
2022/05/26 06:19:51;;;;;;;5.62;2.10;;;;;;;20.98;49.16;100120.91;4444833;32;34659;-65
2022/05/26 06:22:21;;;;;;;4.10;2.40;;;;;;;20.39;49.69;100127.38;4447236;32;32324;-65
2022/05/26 06:24:49;;;;;;;3.62;1.90;;;;;;;20.49;49.47;100135.37;4448840;32;33631;-66
2022/05/26 06:30:09;;;;;;;3.62;1.80;;;;;;;20.07;49.12;100151.78;4435838;32;35124;-66
2022/05/26 06:38:27;;;;;;;3.95;1.80;;;;;;;20.61;48.52;100158.53;4443448;32;33984;-63
2022/05/26 06:40:54;;;;;;;6.05;1.77;;;;;;;20.15;50.31;100165.38;4443829;32;34788;-62
2022/05/26 06:43:22;;;;;;;3.95;1.95;;;;;;;20.47;49.99;100162.69;4447511;32;32721;-64
2022/05/26 06:45:50;;;;;;;6.60;2.17;;;;;;;20.65;50.13;100165.31;4445660;32;33490;-64
2022/05/26 06:48:18;;;;;;;4.07;2.17;;;;;;;20.93;50.48;100165.81;4438216;32;32736;-64
2022/05/26 06:50:45;;;;;;;3.92;2.20;;;;;;;21.16;50.50;100159.66;4445956;32;35760;-65
2022/05/26 06:53:13;;;;;;;4.12;2.45;;;;;;;20.87;51.37;100160.22;4444546;32;34808;-65
2022/05/26 06:55:41;;;;;;;3.78;2.10;;;;;;;21.46;49.14;100155.34;4443957;32;33046;-64
2022/05/26 06:58:08;;;;;;;4.72;2.33;;;;;;;21.52;48.76;100151.94;4446918;32;34776;-63
2022/05/26 07:00:36;;;;;;;6.53;2.40;;;;;;;21.75;48.25;100148.44;4447057;32;34052;-64
2022/05/26 07:03:04;;;;;;;3.53;2.17;;;;;;;21.40;50.05;100154.16;4439173;32;34709;-63
2022/05/26 07:05:35;;;;;;;6.00;2.40;;;;;;;21.68;49.14;100155.63;4436069;32;34386;-65
2022/05/26 07:08:03;;;;;;;5.18;2.03;;;;;;;21.27;49.32;100144.81;4435462;32;34793;-63
2022/05/26 07:10:34;;;;;;;7.95;5.10;;;;;;;21.50;49.31;100145.81;4435547;32;33722;-63
2022/05/26 07:13:02;;;;;;;5.40;2.50;;;;;;;21.59;49.14;100152.06;4443898;32;32849;-63
2022/05/26 07:15:30;;;;;;;4.20;2.22;;;;;;;21.76;48.57;100156.41;4441433;32;32802;-63
2022/05/26 07:17:58;;;;;;;6.35;2.83;;;;;;;21.45;49.82;100152.81;4447916;32;33694;-65
2022/05/26 07:20:25;;;;;;;5.55;2.80;;;;;;;21.53;49.83;100159.06;4438749;32;35236;-65
2022/05/26 07:22:53;;;;;;;4.72;2.42;;;;;;;21.93;49.22;100154.47;4434100;32;33656;-62
2022/05/26 07:25:21;;;;;;;5.20;2.20;;;;;;;21.96;48.46;100161.44;4438049;32;33587;-64
2022/05/26 07:27:48;;;;;;;6.95;2.40;;;;;;;22.37;47.64;100156.63;4445402;32;33786;-63
2022/05/26 07:30:16;;;;;;;3.37;1.90;;;;;;;22.23;48.72;100160.13;4432050;32;138439;-65
2022/05/26 07:32:43;;;;;;;6.25;1.98;;;;;;;22.03;49.60;100160.56;4439744;32;35813;-64
2022/05/26 07:35:11;;;;;;;5.20;1.80;;;;;;;22.06;47.96;100168.38;4434535;32;34284;-65
2022/05/26 07:43:17;;;;;;;3.22;1.65;;;;;;;22.16;48.99;100167.34;4439048;32;32843;-64
2022/05/26 07:45:45;;;;;;;4.30;2.10;;;;;;;21.83;47.54;100173.78;4442652;32;32091;-65
2022/05/26 07:48:13;;;;;;;4.00;2.17;;;;;;;22.37;48.64;100174.84;4450504;32;34909;-65
2022/05/26 07:50:40;;;;;;;4.32;2.22;;;;;;;22.49;48.45;100168.81;4435377;32;33931;-64
2022/05/26 07:53:08;;;;;;;5.62;2.33;;;;;;;22.48;47.84;100175.31;4434061;32;32686;-64
2022/05/26 07:55:38;;;;;;;4.82;1.80;;;;;;;22.50;47.39;100170.53;4444029;32;32176;-64
2022/05/26 07:58:06;;;;;;;4.85;1.98;;;;;;;22.16;47.87;100179.09;4445543;32;33792;-64
2022/05/26 08:00:34;;;;;;;5.78;2.22;;;;;;;22.01;47.65;100187.13;4443733;32;32915;-66
2022/05/26 08:03:02;;;;;;;7.15;2.03;;;;;;;22.58;46.94;100182.41;4449102;32;32937;-65
2022/05/26 08:05:30;;;;;;;4.40;1.98;;;;;;;22.18;47.54;100185.19;4441750;32;34486;-66
2022/05/26 08:07:58;;;;;;;6.75;2.00;;;;;;;22.20;47.79;100179.56;4443133;32;34694;-64
2022/05/26 08:10:25;;;;;;;3.62;1.85;;;;;;;22.38;47.31;100184.75;4434751;32;35133;-65
2022/05/26 08:12:53;;;;;;;3.60;1.90;;;;;;;22.32;47.40;100181.72;4437212;32;34886;-68
2022/05/26 08:15:27;;;;;;;3.83;1.62;;;;;;;21.95;48.15;100182.38;4443783;32;34229;-65
2022/05/26 08:17:54;;;;;;;3.40;1.70;;;;;;;22.42;47.61;100184.19;4452281;32;33877;-66
2022/05/26 08:20:22;;;;;;;3.12;1.62;;;;;;;22.70;46.62;100178.22;4443062;32;33923;-65
2022/05/26 08:22:50;;;;;;;4.28;1.85;;;;;;;22.60;45.96;100180.31;4445703;32;34506;-66
2022/05/26 08:25:18;;;;;;;2.85;1.90;;;;;;;22.89;46.20;100177.72;4449310;32;34209;-64
2022/05/26 08:27:46;;;;;;;6.60;1.80;;;;;;;22.45;45.88;100183.84;4448900;32;33807;-68
2022/05/26 08:30:13;;;;;;;1.42;1.23;;;;;;;22.75;45.53;100182.06;4452721;32;35134;-67
2022/05/26 08:32:41;;;;;;;2.97;1.75;;;;;;;23.09;44.79;100178.06;4451714;32;34551;-65
2022/05/26 08:35:10;;;;;;;2.92;1.60;;;;;;;22.79;44.86;100183.41;4453371;32;32978;-65
2022/05/26 08:37:38;;;;;;;2.58;1.50;;;;;;;22.78;45.40;100181.69;4449537;32;32928;-64
2022/05/26 08:40:06;;;;;;;4.12;1.83;;;;;;;23.45;44.31;100177.34;4452213;32;33976;-65
2022/05/26 08:42:34;;;;;;;3.87;1.40;;;;;;;23.23;45.52;100182.69;4449238;32;34680;-68
2022/05/26 08:45:08;;;;;;;3.33;1.60;;;;;;;23.04;43.76;100185.09;4451536;32;34124;-65
2022/05/26 08:47:48;;;;;;;3.62;1.30;;;;;;;23.37;43.40;100186.50;4426592;32;32300;-65
2022/05/26 08:50:22;;;;;;;3.75;1.50;;;;;;;23.31;44.32;100183.66;4445613;32;35054;-66
2022/05/26 08:52:56;;;;;;;3.92;1.48;;;;;;;23.52;43.96;100181.00;4447116;32;34813;-65
2022/05/26 08:55:31;;;;;;;3.28;1.58;;;;;;;23.85;43.24;100186.13;4447829;32;33426;-68
2022/05/26 08:58:17;;;;;;;3.25;1.55;;;;;;;23.63;42.27;100194.22;4454080;32;35094;-65
2022/05/26 09:00:50;;;;;;;3.25;1.90;;;;;;;23.78;41.78;100186.03;4450562;32;33903;-67
2022/05/26 09:03:31;;;;;;;2.12;1.30;;;;;;;23.97;41.50;100184.59;4446165;32;34121;-66
2022/05/26 09:06:06;;;;;;;3.72;1.15;;;;;;;23.59;42.11;100187.41;4450748;32;32014;-64
2022/05/26 09:14:38;;;;;;;2.28;1.40;;;;;;;23.87;39.34;100192.25;4432155;32;33428;-65
2022/05/26 09:17:10;;;;;;;2.65;1.40;;;;;;;24.07;41.53;100187.03;4447926;32;32933;-67
2022/05/26 09:19:43;;;;;;;4.03;1.30;;;;;;;24.24;41.88;100195.84;4452858;32;33747;-65
2022/05/26 09:22:24;;;;;;;2.45;1.40;;;;;;;24.18;39.27;100192.84;4444627;32;33837;-65
2022/05/26 09:24:52;;;;;;;2.97;1.50;;;;;;;24.30;39.12;100186.88;4439460;32;33755;-68
2022/05/26 09:27:27;;;;;;;2.17;1.30;;;;;;;24.30;40.08;100185.00;4447593;32;34398;-67
2022/05/26 09:30:15;;;;;;;3.20;1.40;;;;;;;24.78;39.27;100184.44;4450797;32;32429;-68
2022/05/26 09:32:42;;;;;;;4.95;1.45;;;;;;;24.85;38.90;100190.84;4449268;32;34053;-65
2022/05/26 09:35:26;;;;;;;3.62;1.80;;;;;;;25.25;37.90;100182.97;4443849;32;33679;-66
2022/05/26 09:38:00;;;;;;;3.17;1.55;;;;;;;25.43;37.63;100183.31;4440064;32;33270;-66
2022/05/26 09:40:34;;;;;;;4.03;1.50;;;;;;;25.97;37.37;100188.09;4438814;32;33446;-64
2022/05/26 09:43:03;;;;;;;2.87;1.27;;;;;;;25.91;36.95;100179.84;4440213;32;32964;-66
2022/05/26 09:45:49;;;;;;;1.85;1.08;;;;;;;25.84;37.03;100184.41;4438648;32;33704;-65
2022/05/26 09:48:24;;;;;;;3.00;1.20;;;;;;;26.05;34.70;100181.56;4443319;32;33297;-66
2022/05/26 09:51:24;;;;;;;2.80;1.35;;;;;;;25.90;34.95;100181.69;4437904;32;33562;-66
2022/05/26 09:53:54;;;;;;;3.12;1.42;;;;;;;26.47;32.75;100187.81;4445106;32;33675;-67
2022/05/26 09:56:27;;;;;;;4.12;1.00;;;;;;;26.32;32.25;100184.38;4446135;32;34728;-65
2022/05/26 09:58:55;;;;;;;2.28;0.90;;;;;;;26.33;32.12;100181.47;4452515;32;31921;-67
2022/05/26 10:01:26;;;;;;;2.65;1.02;;;;;;;26.59;31.51;100171.63;4453989;32;32975;-65
2022/05/26 10:04:47;;;;;;;3.72;1.15;;;;;;;26.48;32.03;100179.41;4452334;32;34018;-65
2022/05/26 10:07:24;;;;;;;5.07;1.20;;;;;;;26.38;33.20;100172.59;4386630;32;32658;-66
2022/05/26 10:10:03;;;;;;;3.72;0.90;;;;;;;26.01;32.63;100169.31;4394122;32;32083;-65
2022/05/26 10:12:39;;;;;;;5.45;1.20;;;;;;;25.99;32.63;100183.22;4432070;32;32474;-68
2022/05/26 10:15:32;;;;;;;3.08;1.10;;;;;;;26.30;31.56;100175.53;4439508;32;33808;-68
2022/05/26 10:18:23;;;;;;;3.12;1.17;;;;;;;25.79;30.97;100182.25;4445595;32;34703;-66
2022/05/26 10:21:06;;;;;;;2.97;1.08;;;;;;;25.95;31.17;100175.63;4445576;32;33533;-66
2022/05/26 10:24:15;;;;;;;3.37;1.00;;;;;;;26.24;31.80;100174.47;4444667;32;32549;-66
2022/05/26 10:26:59;;;;;;;1.90;0.70;;;;;;;26.44;27.97;100172.59;4425640;32;33882;-64
2022/05/26 10:29:45;;;;;;;1.52;0.95;;;;;;;26.77;28.30;100174.56;4442955;32;33597;-65
2022/05/26 10:32:22;;;;;;;5.15;1.05;;;;;;;27.54;28.17;100175.81;4452357;32;33490;-64
2022/05/26 10:35:12;;;;;;;2.03;0.88;;;;;;;27.13;26.65;100176.97;4444470;32;34631;-64
2022/05/26 10:38:11;;;;;;;3.10;1.08;;;;;;;26.22;28.58;100177.38;4442277;32;33907;-66
2022/05/26 10:40:54;;;;;;;1.87;0.80;;;;;;;27.30;26.05;100165.53;4444589;32;32112;-65
2022/05/26 10:43:44;;;;;;;2.28;0.60;;;;;;;27.14;26.84;100173.13;4452978;32;31313;-66
2022/05/26 10:46:13;;;;;;;2.30;0.90;;;;;;;27.61;27.11;100176.66;4428272;32;34902;-67
2022/05/26 10:48:59;;;;;;;3.70;0.90;;;;;;;28.06;26.58;100182.25;4453809;32;34050;-66
2022/05/26 10:51:40;;;;;;;1.92;1.10;;;;;;;27.79;27.39;100173.25;4444737;32;32480;-65
2022/05/26 10:54:14;;;;;;;2.08;1.00;;;;;;;27.78;27.85;100171.56;4445134;32;31968;-65
2022/05/26 10:56:54;;;;;;;4.72;1.27;;;;;;;27.81;28.31;100173.03;4439111;32;35289;-67
2022/05/26 10:59:30;;;;;;;3.87;1.17;;;;;;;27.42;28.95;100177.56;4440413;32;33916;-66
2022/05/26 11:02:20;;;;;;;1.83;0.95;;;;;;;27.26;28.39;100167.00;4451660;32;35670;-66
2022/05/26 11:04:56;;;;;;;1.52;0.70;;;;;;;26.53;29.26;100166.97;4443523;32;31402;-66
2022/05/26 11:07:30;;;;;;;2.00;1.00;;;;;;;27.10;29.24;100160.88;4447751;32;32589;-66
2022/05/26 11:10:06;;;;;;;3.65;1.10;;;;;;;27.22;29.14;100169.31;4446003;32;32827;-67
2022/05/26 11:12:37;;;;;;;2.75;0.90;;;;;;;27.47;28.12;100169.50;4441535;32;34678;-66
2022/05/26 11:18:26;;;;;;;1.40;0.80;;;;;;;27.38;29.73;100157.91;4438076;32;33799;-68
2022/05/26 11:20:56;;;;;;;3.55;1.17;;;;;;;27.74;28.72;100152.94;4440782;32;31089;-68
2022/05/26 11:23:31;;;;;;;1.23;0.82;;;;;;;26.71;29.85;100143.34;4445234;32;33826;-68
2022/05/26 11:26:03;;;;;;;4.18;1.10;;;;;;;27.53;27.93;100140.31;4435250;32;33458;-69
2022/05/26 11:28:39;;;;;;;1.80;0.82;;;;;;;27.65;28.27;100146.81;4441808;32;34904;-68
2022/05/26 11:37:21;;;;;;;4.85;0.90;;;;;;;27.07;29.53;100132.97;4443493;32;33292;-67
2022/05/26 11:39:52;;;;;;;3.53;1.12;;;;;;;27.02;29.93;100135.50;4446532;32;33445;-67
2022/05/26 11:42:47;;;;;;;4.68;1.08;;;;;;;26.79;31.02;100134.03;4445393;32;33637;-66
2022/05/26 11:45:26;;;;;;;2.85;1.15;;;;;;;27.02;28.99;100143.75;4444460;32;33928;-66
2022/05/26 11:48:02;;;;;;;3.05;1.02;;;;;;;26.72;29.96;100130.44;4443546;32;31881;-68
2022/05/26 11:50:58;;;;;;;1.17;0.68;;;;;;;27.14;29.71;100133.84;4445189;32;32874;-66
2022/05/26 11:53:41;;;;;;;0.95;0.68;;;;;;;26.96;28.30;100131.69;4447837;32;33032;-66
2022/05/26 11:56:24;;;;;;;2.95;1.27;;;;;;;27.62;28.66;100122.50;4444236;32;33796;-67
2022/05/26 11:59:32;;;;;;;2.85;1.12;;;;;;;26.93;28.84;100133.00;4446926;32;32948;-67
2022/05/26 12:01:59;;;;;;;1.90;0.85;;;;;;;26.41;29.18;100120.03;4421975;32;32727;-66
2022/05/26 12:04:35;;;;;;;2.58;1.00;;;;;;;26.76;29.48;100133.62;4444589;32;34211;-66
2022/05/26 12:07:05;;;;;;;3.15;1.12;;;;;;;27.12;28.49;100112.03;4445412;32;34599;-66
2022/05/26 12:09:46;;;;;;;3.58;0.98;;;;;;;27.09;29.60;100120.69;4445546;32;31991;-68
2022/05/26 12:12:13;;;;;;;2.78;1.10;;;;;;;27.09;29.03;100106.94;4445519;32;34788;-66
2022/05/26 12:14:47;;;;;;;1.77;1.00;;;;;;;26.94;28.54;100104.47;4452119;32;34098;-67
2022/05/26 12:17:34;;;;;;;3.37;1.05;;;;;;;26.54;28.31;100105.50;4446252;32;32628;-66
2022/05/26 12:20:25;;;;;;;1.65;0.90;;;;;;;26.28;29.76;100107.12;4435212;32;32788;-69
2022/05/26 12:22:53;;;;;;;2.05;1.00;;;;;;;25.91;31.36;100092.91;4447660;32;33831;-66
2022/05/26 12:25:32;;;;;;;2.10;0.90;;;;;;;26.43;30.62;100093.25;4439232;32;33804;-68
2022/05/26 12:28:28;;;;;;;1.85;1.00;;;;;;;26.58;30.82;100093.91;4444758;32;31943;-65
2022/05/26 12:30:56;;;;;;;2.60;0.90;;;;;;;26.56;30.12;100100.66;4435470;32;33146;-68
2022/05/26 12:33:47;;;;;;;2.42;0.85;;;;;;;26.12;30.72;100093.81;4445250;32;32554;-66